EDDS Airport Information

Runway Information
Runway 07 Length 10974 ft width 148 ft
Elevation 1267 ft Threshold 984 ft Heading 72
Runway 25 Length 10974 ft Width 148 ft
Elevation 1181 ft Threshold ft Heading 252
Airport Frequencies
Type ATIS Name ATIS Frequency 126.125 MHZ
Type CLD Name CLNC DEL Frequency 121.9 MHZ
Type DIR Name DIR Frequency 119.85 MHZ
Type GND Name GND Frequency 118.6 MHZ
Type INFO Name LANGEN INF Frequency 128.95 MHZ
Type MISC Name DEICING Frequency 136.825 MHZ
Type PTD Name BASE OPS P Frequency 31.8 MHZ
Type RDR Name LANGEN RAD Frequency 119.2 MHZ
Type RMP Name APRON Frequency 121.7 MHZ
Type TWR Name TWR Frequency 118.8 MHZ
Airport Navaids
Type VOR-DME Name Luburg Frequency 109200 KHZ
Type NDB Name Stuttgart Frequency 306 KHZ
Type DME Name Stuttgart Frequency 115450 KHZ
Type NDB Name Stuttgart Frequency 384 KHZ
Airport Weather Information & NOTAM
ADDS - METARS form results

(1111 UTC 08 August 2022)
Data provider http://aviationweather.gov/metar/data/
 
METAR text: EDDS 081050Z AUTO 07007KT 040V130 CAVOK 24/09 Q1023 NOSIG
Conditions at: EDDS (STUTTGART/ECHTER, DE) observed 1050 UTC 08 August 2022
Temperature: 24.0°C (75°F)
Dewpoint: 9.0°C (48°F) [RH = 38%]
Pressure (altimeter): 30.21 inches Hg (1023.0 mb)
Winds: from the ENE (70 degrees) at 8 MPH (7 knots; 3.6 m/s)
Visibility: 6 or more miles (10+ km)
Ceiling: ceiling and visibility are OK
Clouds: unknown
Weather: no significant weather observed at this time

METAR text: EDDS 081020Z AUTO VRB05KT CAVOK 25/10 Q1023 NOSIG
Conditions at: EDDS (STUTTGART/ECHTER, DE) observed 1020 UTC 08 August 2022
Temperature: 25.0°C (77°F)
Dewpoint: 10.0°C (50°F) [RH = 39%]
Pressure (altimeter): 30.21 inches Hg (1023.0 mb)
Winds: variable direction winds at 6 MPH (5 knots; 2.6 m/s)
Visibility: 6 or more miles (10+ km)
Ceiling: ceiling and visibility are OK
Clouds: unknown
Weather: no significant weather observed at this time

Forecast for: EDDS (STUTTGART/ECHTER, DE)
Text: TAF EDDS 080500Z 0806/0906 VRB02KT CAVOK
Forecast period: 0600 UTC 08 August 2022 to 0600 UTC 09 August 2022
Forecast type: FROM: standard forecast or significant change
Winds: variable direction winds at 2 MPH (2 knots; 1.0 m/s)
Visibility: 6 or more miles (10+ km)
Ceiling: unknown
Clouds: missing
Weather: NSW  (no significant weather)
Text: BECMG 0806/0809 03007KT
Forecast period: 0600 to 1900 UTC 08 August 2022
Forecast type: BECOMING: Conditions expected to become as follows by 0900 UTC 08 August 2022
Winds: from the NNE (30 degrees) at 8 MPH (7 knots; 3.6 m/s)
Visibility: 6 or more miles (10+ km)
Ceiling: unknown
Clouds: missing
Weather: NSW  (no significant weather)
Text: BECMG 0819/0821 VRB02KT
Forecast period: 1900 UTC 08 August 2022 to 0600 UTC 09 August 2022
Forecast type: BECOMING: Conditions expected to become as follows by 2100 UTC 08 August 2022
Winds: variable direction winds at 2 MPH (2 knots; 1.0 m/s)
Visibility: 6 or more miles (10+ km)
Ceiling: unknown
Clouds: missing
Weather: NSW  (no significant weather)